Tri-State, Milton J. Ferguson Field Huntington US
ICAO: KHTS
IATA: HTS
Category: Large
Scheduled Services: Yes

Elevation: 828 ft
TransAlt. 18000 ft.

Airport Communications:
HUNTINGTON APP/DEP:119.75
ATIS:125.2
CLNC DEL:118.05
GND:121.9
ELKINS RDO:122.2
HUNTINGTON TWR:118.5
UNICOM:122.95

KHTS Zoom In..

If you have problems with the map follow the link
https://www.worldairports.se/pages/airport.php?
ICAO=KHTS

Runways:

(A) RW 12 length 7017 ft width 150 ft
ILS 109.90 / hdg 118

(B) RW 30 length 7017 ft width 150 ft
ILS 108.70 / hdg 298

Location; KHTS
Day. 21 / Time. 18.51 Zulu
* Altimeter: 30.29
* Temperature: 08° c. 46.4°f.
* Wind from: VRB° Speed 03 kn.
Dewpoint: -02° c.
Visibility: 10 Statute Miles.
Clouds: Clear (automated report).

KHTS 211851Z VRB03KT 10SM CLR 08/M02 A3029 RMK AO2 SLP260 T00781022


Wind From VRB°
Speed 03 kn.

 
 
jpsmedia.com for Web Design worldairports.se 2018   terms of use